メインページ
METAR-TAF:

METAR-TAF

空港 :

ドンムアン空港

バンコク, タイ

緯度: 13-54-45N, 経度: 100-36-24E, 海抜: 4m

現時点の気象観測

当レポートは16分前の10:00(UTC)に作成
南/南東の風 5kt
気温 30°C
湿度 75%
気圧 1007 hPa
視程10km以上
高度2000ftの雲はほとんどない, 積乱雲.
高度3500ftの雲は散在している

METAR: VTBD 211000Z 16005KT 9999 FEW020CB SCT035 30/25 Q1007 NOSIG

時間: 17:16 (10:16 UTC)

予報

当レポートは5時間16分前の05:00(UTC)に作成
予報は21日の 06時(UTC)から 22日の 12時(UTC)まで有効
南/南西の風 8kt
視程10km以上
高度2000ftの雲はほとんどない
21日の 08時(UTC)から 21日の 12時(UTC)まで一時的に
西/南西の風 15kt
視程: 6000m
高度1800ftの雲はほとんどない, 積乱雲.
高度3000ftの雲は散在している
激しい雷雨, 小雨
22日の 08時(UTC)から 22日の 12時(UTC)まで一時的に
西の風 15kt
視程: 6000m
高度1800ftの雲はほとんどない, 積乱雲.
高度3000ftの雲は散在している
激しい雷雨, 小雨

TAF: VTBD 210500Z 2106/2212 20008KT 9999 FEW020 TEMPO 2108/2112 25015KT 6000 -TSRA FEW018CB SCT030 TEMPO 2208/2212 26015KT 6000 -TSRA FEW018CB SCT030

4,000以上の空港の気象観測と天気予報(METAR報とTAF報)

利用可能な観測所は地図上に黄色い丸と赤い丸で示す。

丸の上にカーソルを重ねると観測所名を参照できる。

次にクリックすると気象観測と天気予報を参照できる。

マップの切り替え:黒色「×」印の緑ボタンをクリックして拡大、「-」印の緑ボタンをクリックして縮小、緑色の三角印をクリックして隣りの地図に切り替え


METAR-TAF: